sensor_id;sensor_type;location;lat;lon;timestamp;pressure;altitude;pressure_sealevel;temperature;humidity
64602;BME280;68371;42.630;23.192;2023-05-14T00:02:06;92774.34;;;12.76;87.72
64602;BME280;68371;42.630;23.192;2023-05-14T00:04:33;92774.25;;;12.73;88.18
64602;BME280;68371;42.630;23.192;2023-05-14T00:07:00;92774.19;;;12.69;87.32
64602;BME280;68371;42.630;23.192;2023-05-14T00:09:27;92767.03;;;12.70;87.45
64602;BME280;68371;42.630;23.192;2023-05-14T00:11:54;92703.91;;;12.29;87.67
64602;BME280;68371;42.630;23.192;2023-05-14T00:14:21;92749.69;;;12.69;87.31
64602;BME280;68371;42.630;23.192;2023-05-14T00:16:48;92735.41;;;12.54;87.43
64602;BME280;68371;42.630;23.192;2023-05-14T00:19:16;92748.50;;;12.66;86.83
64602;BME280;68371;42.630;23.192;2023-05-14T00:21:43;92743.75;;;12.72;87.17
64602;BME280;68371;42.630;23.192;2023-05-14T00:24:09;92740.91;;;12.65;87.04
64602;BME280;68371;42.630;23.192;2023-05-14T00:26:36;92731.31;;;12.56;88.07
64602;BME280;68371;42.630;23.192;2023-05-14T00:29:04;92736.25;;;12.58;88.44
64602;BME280;68371;42.630;23.192;2023-05-14T00:31:30;92725.09;;;12.49;88.14
64602;BME280;68371;42.630;23.192;2023-05-14T00:33:57;92700.03;;;12.39;88.55
64602;BME280;68371;42.630;23.192;2023-05-14T00:36:25;92728.34;;;12.58;88.80
64602;BME280;68371;42.630;23.192;2023-05-14T00:38:52;92729.78;;;12.55;89.08
64602;BME280;68371;42.630;23.192;2023-05-14T00:41:18;92725.19;;;12.52;89.77
64602;BME280;68371;42.630;23.192;2023-05-14T00:43:45;92716.75;;;12.47;89.96
64602;BME280;68371;42.630;23.192;2023-05-14T00:46:13;92719.25;;;12.55;89.89
64602;BME280;68371;42.630;23.192;2023-05-14T00:48:39;92711.69;;;12.54;89.98
64602;BME280;68371;42.630;23.192;2023-05-14T00:51:07;92712.19;;;12.43;90.56
64602;BME280;68371;42.630;23.192;2023-05-14T00:53:36;92710.06;;;12.49;90.21
64602;BME280;68371;42.630;23.192;2023-05-14T00:56:05;92716.44;;;12.48;90.36
64602;BME280;68371;42.630;23.192;2023-05-14T00:58:32;92671.94;;;12.15;90.51
64602;BME280;68371;42.630;23.192;2023-05-14T01:00:59;92707.63;;;12.28;90.41
64602;BME280;68371;42.630;23.192;2023-05-14T01:03:26;92714.56;;;12.33;90.82
64602;BME280;68371;42.630;23.192;2023-05-14T01:06:00;92687.50;;;12.20;90.94
64602;BME280;68371;42.630;23.192;2023-05-14T01:08:33;92678.13;;;12.07;91.14
64602;BME280;68371;42.630;23.192;2023-05-14T01:11:06;92704.91;;;12.25;91.23
64602;BME280;68371;42.630;23.192;2023-05-14T01:13:43;92716.47;;;12.20;92.30
64602;BME280;68371;42.630;23.192;2023-05-14T01:16:12;92723.59;;;12.19;91.79
64602;BME280;68371;42.630;23.192;2023-05-14T01:18:42;92720.59;;;12.05;91.39
64602;BME280;68371;42.630;23.192;2023-05-14T01:21:35;92716.84;;;12.06;91.20
64602;BME280;68371;42.630;23.192;2023-05-14T01:24:02;92725.53;;;12.07;91.30
64602;BME280;68371;42.630;23.192;2023-05-14T01:26:29;92725.19;;;12.08;92.39
64602;BME280;68371;42.630;23.192;2023-05-14T01:29:00;92728.25;;;12.10;92.45
64602;BME280;68371;42.630;23.192;2023-05-14T01:31:30;92734.19;;;12.07;92.47
64602;BME280;68371;42.630;23.192;2023-05-14T01:33:57;92717.28;;;12.08;92.51
64602;BME280;68371;42.630;23.192;2023-05-14T01:36:25;92730.38;;;12.20;93.25
64602;BME280;68371;42.630;23.192;2023-05-14T01:38:55;92733.44;;;12.22;93.00
64602;BME280;68371;42.630;23.192;2023-05-14T01:41:24;92724.25;;;12.16;93.03
64602;BME280;68371;42.630;23.192;2023-05-14T01:43:51;92732.25;;;12.20;93.10
64602;BME280;68371;42.630;23.192;2023-05-14T01:46:18;92722.97;;;12.10;93.05
64602;BME280;68371;42.630;23.192;2023-05-14T01:48:46;92735.31;;;12.22;92.72
64602;BME280;68371;42.630;23.192;2023-05-14T01:51:12;92732.25;;;12.20;93.27
64602;BME280;68371;42.630;23.192;2023-05-14T01:53:40;92739.16;;;12.25;93.87
64602;BME280;68371;42.630;23.192;2023-05-14T01:56:10;92736.88;;;12.23;94.20
64602;BME280;68371;42.630;23.192;2023-05-14T01:58:37;92736.50;;;12.25;94.23
64602;BME280;68371;42.630;23.192;2023-05-14T02:01:04;92735.44;;;12.26;93.38
64602;BME280;68371;42.630;23.192;2023-05-14T02:03:30;92742.56;;;12.25;93.59
64602;BME280;68371;42.630;23.192;2023-05-14T02:05:57;92743.66;;;12.24;93.95
64602;BME280;68371;42.630;23.192;2023-05-14T02:08:24;92746.19;;;12.20;93.89
64602;BME280;68371;42.630;23.192;2023-05-14T02:10:50;92745.34;;;12.16;93.34
64602;BME280;68371;42.630;23.192;2023-05-14T02:13:18;92749.41;;;12.14;93.66
64602;BME280;68371;42.630;23.192;2023-05-14T02:15:45;92750.09;;;12.11;93.99
64602;BME280;68371;42.630;23.192;2023-05-14T02:18:12;92747.47;;;12.11;93.78
64602;BME280;68371;42.630;23.192;2023-05-14T02:20:42;92746.81;;;12.01;93.05
64602;BME280;68371;42.630;23.192;2023-05-14T02:23:10;92753.63;;;12.02;91.65
64602;BME280;68371;42.630;23.192;2023-05-14T02:25:37;92764.25;;;12.06;92.07
64602;BME280;68371;42.630;23.192;2023-05-14T02:28:05;92769.88;;;12.05;92.82
64602;BME280;68371;42.630;23.192;2023-05-14T02:30:33;92756.03;;;12.08;92.72
64602;BME280;68371;42.630;23.192;2023-05-14T02:33:00;92759.41;;;12.08;92.93
64602;BME280;68371;42.630;23.192;2023-05-14T02:35:27;92763.47;;;12.06;93.58
64602;BME280;68371;42.630;23.192;2023-05-14T02:37:53;92767.75;;;12.10;93.76
64602;BME280;68371;42.630;23.192;2023-05-14T02:40:20;92778.97;;;12.07;93.42
64602;BME280;68371;42.630;23.192;2023-05-14T02:42:47;92780.72;;;12.03;93.54
64602;BME280;68371;42.630;23.192;2023-05-14T02:45:13;92786.66;;;12.00;93.64
64602;BME280;68371;42.630;23.192;2023-05-14T02:47:42;92785.22;;;12.02;93.99
64602;BME280;68371;42.630;23.192;2023-05-14T02:50:10;92785.75;;;12.08;94.94
64602;BME280;68371;42.630;23.192;2023-05-14T02:52:37;92782.59;;;12.02;94.96
64602;BME280;68371;42.630;23.192;2023-05-14T02:55:05;92775.91;;;12.05;95.27
64602;BME280;68371;42.630;23.192;2023-05-14T02:57:31;92777.84;;;12.08;95.09
64602;BME280;68371;42.630;23.192;2023-05-14T02:59:58;92775.22;;;12.08;95.26
64602;BME280;68371;42.630;23.192;2023-05-14T03:02:25;92757.47;;;12.05;95.23
64602;BME280;68371;42.630;23.192;2023-05-14T03:04:53;92747.03;;;12.09;95.61
64602;BME280;68371;42.630;23.192;2023-05-14T03:07:19;92736.41;;;12.05;95.74
64602;BME280;68371;42.630;23.192;2023-05-14T03:09:46;92715.94;;;11.86;95.81
64602;BME280;68371;42.630;23.192;2023-05-14T03:12:13;92740.16;;;11.92;96.29
64602;BME280;68371;42.630;23.192;2023-05-14T03:14:42;92749.72;;;11.84;96.46
64602;BME280;68371;42.630;23.192;2023-05-14T03:17:11;92737.78;;;11.74;95.95
64602;BME280;68371;42.630;23.192;2023-05-14T03:19:38;92723.56;;;11.63;95.91
64602;BME280;68371;42.630;23.192;2023-05-14T03:22:07;92736.13;;;11.70;96.18
64602;BME280;68371;42.630;23.192;2023-05-14T03:24:37;92738.59;;;11.62;97.04
64602;BME280;68371;42.630;23.192;2023-05-14T03:27:04;92739.78;;;11.53;96.91
64602;BME280;68371;42.630;23.192;2023-05-14T03:29:31;92750.00;;;11.54;95.97
64602;BME280;68371;42.630;23.192;2023-05-14T03:31:58;92748.91;;;11.43;96.56
64602;BME280;68371;42.630;23.192;2023-05-14T03:34:24;92754.59;;;11.45;97.07
64602;BME280;68371;42.630;23.192;2023-05-14T03:36:51;92730.50;;;11.31;96.65
64602;BME280;68371;42.630;23.192;2023-05-14T03:39:19;92752.22;;;11.40;96.18
64602;BME280;68371;42.630;23.192;2023-05-14T03:41:47;92747.06;;;11.31;96.25
64602;BME280;68371;42.630;23.192;2023-05-14T03:44:13;92752.00;;;11.33;96.98
64602;BME280;68371;42.630;23.192;2023-05-14T03:46:43;92730.63;;;11.22;96.83
64602;BME280;68371;42.630;23.192;2023-05-14T03:49:11;92759.53;;;11.47;96.35
64602;BME280;68371;42.630;23.192;2023-05-14T03:51:38;92765.69;;;11.51;92.89
64602;BME280;68371;42.630;23.192;2023-05-14T03:54:05;92766.44;;;11.51;93.78
64602;BME280;68371;42.630;23.192;2023-05-14T03:56:33;92765.09;;;11.57;95.16
64602;BME280;68371;42.630;23.192;2023-05-14T03:59:00;92752.38;;;11.59;95.03
64602;BME280;68371;42.630;23.192;2023-05-14T04:01:27;92764.69;;;11.55;95.46
64602;BME280;68371;42.630;23.192;2023-05-14T04:03:53;92762.03;;;11.55;95.51
64602;BME280;68371;42.630;23.192;2023-05-14T04:06:20;92761.59;;;11.53;96.10
64602;BME280;68371;42.630;23.192;2023-05-14T04:08:47;92763.25;;;11.58;96.31
64602;BME280;68371;42.630;23.192;2023-05-14T04:11:13;92765.97;;;11.61;95.27
64602;BME280;68371;42.630;23.192;2023-05-14T04:13:42;92770.16;;;11.62;95.69
64602;BME280;68371;42.630;23.192;2023-05-14T04:16:08;92763.38;;;11.49;95.64
64602;BME280;68371;42.630;23.192;2023-05-14T04:18:35;92778.38;;;11.61;95.29
64602;BME280;68371;42.630;23.192;2023-05-14T04:21:02;92753.84;;;11.45;95.25
64602;BME280;68371;42.630;23.192;2023-05-14T04:23:29;92780.69;;;11.62;95.36
64602;BME280;68371;42.630;23.192;2023-05-14T04:25:56;92789.22;;;11.59;95.88
64602;BME280;68371;42.630;23.192;2023-05-14T04:28:23;92792.84;;;11.55;96.42
64602;BME280;68371;42.630;23.192;2023-05-14T04:30:51;92791.97;;;11.51;95.73
64602;BME280;68371;42.630;23.192;2023-05-14T04:33:18;92797.47;;;11.58;95.64
64602;BME280;68371;42.630;23.192;2023-05-14T04:35:45;92802.50;;;11.63;96.06
64602;BME280;68371;42.630;23.192;2023-05-14T04:38:13;92787.03;;;11.49;96.25
64602;BME280;68371;42.630;23.192;2023-05-14T04:40:40;92803.59;;;11.62;96.98
64602;BME280;68371;42.630;23.192;2023-05-14T04:43:07;92803.16;;;11.60;95.91
64602;BME280;68371;42.630;23.192;2023-05-14T04:45:34;92814.44;;;11.60;96.02
64602;BME280;68371;42.630;23.192;2023-05-14T04:48:03;92798.00;;;11.51;95.95
64602;BME280;68371;42.630;23.192;2023-05-14T04:50:32;92829.56;;;11.63;95.34
64602;BME280;68371;42.630;23.192;2023-05-14T04:52:58;92831.00;;;11.61;95.10
64602;BME280;68371;42.630;23.192;2023-05-14T04:55:25;92835.69;;;11.68;96.55
64602;BME280;68371;42.630;23.192;2023-05-14T04:57:52;92841.84;;;11.72;97.40
64602;BME280;68371;42.630;23.192;2023-05-14T05:00:18;92848.22;;;11.71;97.85
64602;BME280;68371;42.630;23.192;2023-05-14T05:02:46;92857.31;;;11.73;97.42
64602;BME280;68371;42.630;23.192;2023-05-14T05:05:15;92849.28;;;11.70;97.59
64602;BME280;68371;42.630;23.192;2023-05-14T05:07:42;92848.88;;;11.68;96.93
64602;BME280;68371;42.630;23.192;2023-05-14T05:10:10;92854.81;;;11.65;97.94
64602;BME280;68371;42.630;23.192;2023-05-14T05:12:36;92855.56;;;11.65;98.36
64602;BME280;68371;42.630;23.192;2023-05-14T05:15:04;92853.06;;;11.56;98.17
64602;BME280;68371;42.630;23.192;2023-05-14T05:17:31;92856.56;;;11.60;98.00
64602;BME280;68371;42.630;23.192;2023-05-14T05:19:58;92848.78;;;11.64;97.89
64602;BME280;68371;42.630;23.192;2023-05-14T05:22:26;92840.88;;;11.52;98.50
64602;BME280;68371;42.630;23.192;2023-05-14T05:24:52;92855.44;;;11.61;98.12
64602;BME280;68371;42.630;23.192;2023-05-14T05:27:19;92855.44;;;11.61;97.82
64602;BME280;68371;42.630;23.192;2023-05-14T05:29:46;92855.00;;;11.72;96.93
64602;BME280;68371;42.630;23.192;2023-05-14T05:32:13;92859.94;;;11.73;97.63
64602;BME280;68371;42.630;23.192;2023-05-14T05:34:41;92859.38;;;11.68;97.58
64602;BME280;68371;42.630;23.192;2023-05-14T05:37:08;92855.34;;;11.70;97.17
64602;BME280;68371;42.630;23.192;2023-05-14T05:39:38;92861.50;;;11.74;96.86
64602;BME280;68371;42.630;23.192;2023-05-14T05:42:06;92865.97;;;11.74;97.01
64602;BME280;68371;42.630;23.192;2023-05-14T05:44:32;92855.34;;;11.58;97.70
64602;BME280;68371;42.630;23.192;2023-05-14T05:46:59;92838.25;;;11.52;98.07
64602;BME280;68371;42.630;23.192;2023-05-14T05:49:26;92871.56;;;11.72;98.52
64602;BME280;68371;42.630;23.192;2023-05-14T05:51:53;92880.66;;;11.75;98.81
64602;BME280;68371;42.630;23.192;2023-05-14T05:54:19;92867.06;;;11.73;99.37
64602;BME280;68371;42.630;23.192;2023-05-14T05:56:49;92835.19;;;11.50;99.44
64602;BME280;68371;42.630;23.192;2023-05-14T05:59:20;92855.69;;;11.69;99.61
64602;BME280;68371;42.630;23.192;2023-05-14T06:01:47;92855.78;;;11.60;98.72
64602;BME280;68371;42.630;23.192;2023-05-14T06:04:14;92851.63;;;11.59;97.40
64602;BME280;68371;42.630;23.192;2023-05-14T06:06:41;92855.25;;;11.54;97.77
64602;BME280;68371;42.630;23.192;2023-05-14T06:09:07;92857.19;;;11.57;97.44
64602;BME280;68371;42.630;23.192;2023-05-14T06:11:34;92840.53;;;11.41;97.75
64602;BME280;68371;42.630;23.192;2023-05-14T06:14:02;92843.41;;;11.48;98.00
64602;BME280;68371;42.630;23.192;2023-05-14T06:16:29;92839.03;;;11.52;98.21
64602;BME280;68371;42.630;23.192;2023-05-14T06:18:56;92831.13;;;11.52;98.23
64602;BME280;68371;42.630;23.192;2023-05-14T06:21:23;92834.19;;;11.42;98.46
64602;BME280;68371;42.630;23.192;2023-05-14T06:23:49;92839.09;;;11.31;99.20
64602;BME280;68371;42.630;23.192;2023-05-14T06:26:16;92832.22;;;11.27;99.46
64602;BME280;68371;42.630;23.192;2023-05-14T06:28:43;92844.38;;;11.31;99.11
64602;BME280;68371;42.630;23.192;2023-05-14T06:31:11;92856.44;;;11.32;98.73
64602;BME280;68371;42.630;23.192;2023-05-14T06:33:39;92842.72;;;11.27;99.17
64602;BME280;68371;42.630;23.192;2023-05-14T06:36:06;92851.59;;;11.10;99.71
64602;BME280;68371;42.630;23.192;2023-05-14T06:38:33;92860.22;;;10.98;99.44
64602;BME280;68371;42.630;23.192;2023-05-14T06:41:00;92864.03;;;10.88;100.00
64602;BME280;68371;42.630;23.192;2023-05-14T06:43:26;92842.78;;;10.81;100.00
64602;BME280;68371;42.630;23.192;2023-05-14T06:45:53;92829.72;;;10.85;100.00
64602;BME280;68371;42.630;23.192;2023-05-14T06:48:21;92839.72;;;10.91;100.00
64602;BME280;68371;42.630;23.192;2023-05-14T06:50:49;92827.09;;;10.85;100.00
64602;BME280;68371;42.630;23.192;2023-05-14T06:53:15;92833.66;;;10.78;100.00
64602;BME280;68371;42.630;23.192;2023-05-14T06:55:42;92818.75;;;10.70;100.00
64602;BME280;68371;42.630;23.192;2023-05-14T06:58:09;92808.69;;;10.72;100.00
64602;BME280;68371;42.630;23.192;2023-05-14T07:00:35;92826.09;;;10.65;100.00
64602;BME280;68371;42.630;23.192;2023-05-14T07:03:02;92835.38;;;10.62;100.00
64602;BME280;68371;42.630;23.192;2023-05-14T07:05:31;92830.66;;;10.55;100.00
64602;BME280;68371;42.630;23.192;2023-05-14T07:07:57;92831.50;;;10.47;100.00
64602;BME280;68371;42.630;23.192;2023-05-14T07:10:24;92839.69;;;10.46;100.00
64602;BME280;68371;42.630;23.192;2023-05-14T07:12:51;92849.81;;;10.56;100.00
64602;BME280;68371;42.630;23.192;2023-05-14T07:15:18;92880.38;;;10.39;100.00
64602;BME280;68371;42.630;23.192;2023-05-14T07:17:45;92884.34;;;10.46;100.00
64602;BME280;68371;42.630;23.192;2023-05-14T07:20:12;92876.59;;;10.49;100.00
64602;BME280;68371;42.630;23.192;2023-05-14T07:22:40;92884.66;;;10.44;100.00
64602;BME280;68371;42.630;23.192;2023-05-14T07:25:07;92885.22;;;10.29;100.00
64602;BME280;68371;42.630;23.192;2023-05-14T07:27:36;92880.28;;;10.27;100.00
64602;BME280;68371;42.630;23.192;2023-05-14T07:30:03;92865.16;;;10.33;100.00
64602;BME280;68371;42.630;23.192;2023-05-14T07:32:30;92867.63;;;10.29;100.00
64602;BME280;68371;42.630;23.192;2023-05-14T07:34:57;92849.09;;;10.26;100.00
64602;BME280;68371;42.630;23.192;2023-05-14T07:37:23;92867.13;;;10.36;100.00
64602;BME280;68371;42.630;23.192;2023-05-14T07:39:53;92876.78;;;10.44;100.00
64602;BME280;68371;42.630;23.192;2023-05-14T07:42:21;92804.88;;;9.94;100.00
64602;BME280;68371;42.630;23.192;2023-05-14T07:44:48;92869.13;;;10.39;100.00
64602;BME280;68371;42.630;23.192;2023-05-14T07:47:15;92883.91;;;10.43;100.00
64602;BME280;68371;42.630;23.192;2023-05-14T07:49:42;92889.38;;;10.38;100.00
64602;BME280;68371;42.630;23.192;2023-05-14T07:52:08;92895.91;;;10.32;100.00
64602;BME280;68371;42.630;23.192;2023-05-14T07:54:35;92888.56;;;10.38;100.00
64602;BME280;68371;42.630;23.192;2023-05-14T07:57:04;92889.09;;;10.31;100.00
64602;BME280;68371;42.630;23.192;2023-05-14T07:59:31;92896.97;;;10.31;100.00
64602;BME280;68371;42.630;23.192;2023-05-14T08:01:57;92889.22;;;10.35;100.00
64602;BME280;68371;42.630;23.192;2023-05-14T08:04:24;92878.34;;;10.45;100.00
64602;BME280;68371;42.630;23.192;2023-05-14T08:06:51;92856.44;;;10.41;100.00
64602;BME280;68371;42.630;23.192;2023-05-14T08:09:18;92852.38;;;10.43;100.00
64602;BME280;68371;42.630;23.192;2023-05-14T08:11:45;92852.38;;;10.43;100.00
64602;BME280;68371;42.630;23.192;2023-05-14T08:14:13;92855.22;;;10.38;100.00
64602;BME280;68371;42.630;23.192;2023-05-14T08:16:40;92848.75;;;10.36;100.00
64602;BME280;68371;42.630;23.192;2023-05-14T08:19:06;92852.47;;;10.35;100.00
64602;BME280;68371;42.630;23.192;2023-05-14T08:21:33;92853.16;;;10.23;100.00
64602;BME280;68371;42.630;23.192;2023-05-14T08:24:00;92847.44;;;10.21;100.00
64602;BME280;68371;42.630;23.192;2023-05-14T08:26:26;92849.25;;;10.08;100.00
64602;BME280;68371;42.630;23.192;2023-05-14T08:28:54;92850.47;;;10.11;100.00
64602;BME280;68371;42.630;23.192;2023-05-14T08:31:22;92850.09;;;10.00;100.00
64602;BME280;68371;42.630;23.192;2023-05-14T08:33:51;92842.59;;;10.11;100.00
64602;BME280;68371;42.630;23.192;2023-05-14T08:36:17;92838.56;;;9.92;100.00
64602;BME280;68371;42.630;23.192;2023-05-14T08:38:44;92833.22;;;9.80;100.00
64602;BME280;68371;42.630;23.192;2023-05-14T08:41:11;92839.38;;;9.84;100.00
64602;BME280;68371;42.630;23.192;2023-05-14T08:43:43;92829.03;;;9.88;100.00
64602;BME280;68371;42.630;23.192;2023-05-14T08:46:12;92833.09;;;9.76;100.00
64602;BME280;68371;42.630;23.192;2023-05-14T08:48:41;92841.78;;;9.89;100.00
64602;BME280;68371;42.630;23.192;2023-05-14T08:51:09;92844.69;;;9.96;100.00
64602;BME280;68371;42.630;23.192;2023-05-14T08:53:35;92846.22;;;9.97;100.00
64602;BME280;68371;42.630;23.192;2023-05-14T08:56:06;92845.28;;;10.02;100.00
64602;BME280;68371;42.630;23.192;2023-05-14T08:58:33;92814.03;;;9.88;100.00
64602;BME280;68371;42.630;23.192;2023-05-14T09:01:00;92849.50;;;10.15;100.00
64602;BME280;68371;42.630;23.192;2023-05-14T09:03:29;92826.31;;;9.96;100.00
64602;BME280;68371;42.630;23.192;2023-05-14T09:05:58;92840.78;;;10.23;100.00
64602;BME280;68371;42.630;23.192;2023-05-14T09:08:25;92835.28;;;10.37;100.00
64602;BME280;68371;42.630;23.192;2023-05-14T09:10:52;92814.94;;;10.34;100.00
64602;BME280;68371;42.630;23.192;2023-05-14T09:13:19;92827.47;;;10.29;100.00
64602;BME280;68371;42.630;23.192;2023-05-14T09:15:47;92834.72;;;10.32;100.00
64602;BME280;68371;42.630;23.192;2023-05-14T09:18:16;92835.94;;;10.34;100.00
64602;BME280;68371;42.630;23.192;2023-05-14T09:20:43;92844.78;;;10.30;100.00
64602;BME280;68371;42.630;23.192;2023-05-14T09:23:11;92835.16;;;10.34;100.00
64602;BME280;68371;42.630;23.192;2023-05-14T09:25:37;92825.69;;;10.41;100.00
64602;BME280;68371;42.630;23.192;2023-05-14T09:28:05;92819.53;;;10.37;100.00
64602;BME280;68371;42.630;23.192;2023-05-14T09:30:33;92833.94;;;10.31;100.00
64602;BME280;68371;42.630;23.192;2023-05-14T09:33:01;92839.56;;;10.42;100.00
64602;BME280;68371;42.630;23.192;2023-05-14T09:35:28;92811.53;;;10.34;100.00
64602;BME280;68371;42.630;23.192;2023-05-14T09:37:55;92816.19;;;10.49;100.00
64602;BME280;68371;42.630;23.192;2023-05-14T09:40:24;92825.63;;;10.50;100.00
64602;BME280;68371;42.630;23.192;2023-05-14T09:42:50;92809.72;;;10.47;100.00
64602;BME280;68371;42.630;23.192;2023-05-14T09:45:17;92806.31;;;10.46;100.00
64602;BME280;68371;42.630;23.192;2023-05-14T09:47:44;92799.72;;;10.40;100.00
64602;BME280;68371;42.630;23.192;2023-05-14T09:50:10;92805.88;;;10.44;100.00
64602;BME280;68371;42.630;23.192;2023-05-14T09:52:38;92804.91;;;10.49;100.00
64602;BME280;68371;42.630;23.192;2023-05-14T09:55:05;92802.34;;;10.40;100.00
64602;BME280;68371;42.630;23.192;2023-05-14T09:57:34;92801.03;;;10.34;100.00
64602;BME280;68371;42.630;23.192;2023-05-14T10:00:01;92792.56;;;10.28;100.00
64602;BME280;68371;42.630;23.192;2023-05-14T10:02:33;92788.59;;;10.22;100.00
64602;BME280;68371;42.630;23.192;2023-05-14T10:05:03;92780.66;;;10.31;100.00
64602;BME280;68371;42.630;23.192;2023-05-14T10:07:36;92790.13;;;10.23;100.00
64602;BME280;68371;42.630;23.192;2023-05-14T10:10:06;92783.53;;;10.17;100.00
64602;BME280;68371;42.630;23.192;2023-05-14T10:12:38;92765.38;;;10.12;100.00
64602;BME280;68371;42.630;23.192;2023-05-14T10:15:11;92747.78;;;9.91;100.00
64602;BME280;68371;42.630;23.192;2023-05-14T10:17:39;92760.00;;;9.87;100.00
64602;BME280;68371;42.630;23.192;2023-05-14T10:20:12;92775.25;;;9.94;100.00
64602;BME280;68371;42.630;23.192;2023-05-14T10:22:40;92764.41;;;9.95;100.00
64602;BME280;68371;42.630;23.192;2023-05-14T10:25:07;92805.31;;;9.96;100.00
64602;BME280;68371;42.630;23.192;2023-05-14T10:27:36;92798.78;;;10.02;100.00
64602;BME280;68371;42.630;23.192;2023-05-14T10:30:09;92703.47;;;9.56;100.00
64602;BME280;68371;42.630;23.192;2023-05-14T10:32:36;92798.63;;;10.08;100.00
64602;BME280;68371;42.630;23.192;2023-05-14T10:35:14;92796.88;;;9.91;100.00
64602;BME280;68371;42.630;23.192;2023-05-14T10:37:43;92754.31;;;9.85;100.00
64602;BME280;68371;42.630;23.192;2023-05-14T10:40:11;92737.16;;;9.67;100.00
64602;BME280;68371;42.630;23.192;2023-05-14T10:42:39;92799.75;;;9.98;100.00
64602;BME280;68371;42.630;23.192;2023-05-14T10:45:09;92796.31;;;10.06;100.00
64602;BME280;68371;42.630;23.192;2023-05-14T10:47:37;92790.09;;;10.11;100.00
64602;BME280;68371;42.630;23.192;2023-05-14T10:50:06;92782.03;;;10.16;100.00
64602;BME280;68371;42.630;23.192;2023-05-14T10:52:34;92776.50;;;10.30;100.00
64602;BME280;68371;42.630;23.192;2023-05-14T10:55:03;92760.56;;;10.35;100.00
64602;BME280;68371;42.630;23.192;2023-05-14T10:57:33;92759.81;;;10.47;100.00
64602;BME280;68371;42.630;23.192;2023-05-14T11:00:07;92765.66;;;10.52;100.00
64602;BME280;68371;42.630;23.192;2023-05-14T11:02:36;92759.53;;;10.60;100.00
64602;BME280;68371;42.630;23.192;2023-05-14T11:05:05;92763.03;;;10.65;100.00
64602;BME280;68371;42.630;23.192;2023-05-14T11:07:34;92772.47;;;10.78;100.00
64602;BME280;68371;42.630;23.192;2023-05-14T11:10:03;92754.38;;;10.76;100.00
64602;BME280;68371;42.630;23.192;2023-05-14T11:12:32;92762.94;;;10.86;100.00
64602;BME280;68371;42.630;23.192;2023-05-14T11:15:00;92769.41;;;10.88;100.00
64602;BME280;68371;42.630;23.192;2023-05-14T11:17:30;92773.59;;;10.89;100.00
64602;BME280;68371;42.630;23.192;2023-05-14T11:19:59;92787.47;;;10.90;100.00
64602;BME280;68371;42.630;23.192;2023-05-14T11:22:26;92774.31;;;10.77;100.00
64602;BME280;68371;42.630;23.192;2023-05-14T11:24:53;92747.03;;;10.57;100.00
64602;BME280;68371;42.630;23.192;2023-05-14T11:27:21;92769.59;;;10.58;100.00
64602;BME280;68371;42.630;23.192;2023-05-14T11:29:48;92766.31;;;10.61;100.00
64602;BME280;68371;42.630;23.192;2023-05-14T11:32:15;92781.63;;;10.59;100.00
64602;BME280;68371;42.630;23.192;2023-05-14T11:34:45;92779.75;;;10.60;100.00
64602;BME280;68371;42.630;23.192;2023-05-14T11:37:13;92768.03;;;10.45;100.00
64602;BME280;68371;42.630;23.192;2023-05-14T11:39:45;92770.66;;;10.57;100.00
64602;BME280;68371;42.630;23.192;2023-05-14T11:42:13;92756.13;;;10.60;100.00
64602;BME280;68371;42.630;23.192;2023-05-14T11:44:41;92748.47;;;10.67;100.00
64602;BME280;68371;42.630;23.192;2023-05-14T11:47:09;92752.63;;;10.68;100.00
64602;BME280;68371;42.630;23.192;2023-05-14T11:49:36;92756.03;;;10.69;100.00
64602;BME280;68371;42.630;23.192;2023-05-14T11:52:07;92751.31;;;10.74;100.00
64602;BME280;68371;42.630;23.192;2023-05-14T11:54:34;92746.72;;;10.71;100.00
64602;BME280;68371;42.630;23.192;2023-05-14T11:57:06;92744.88;;;10.72;100.00
64602;BME280;68371;42.630;23.192;2023-05-14T11:59:36;92735.47;;;10.83;100.00
64602;BME280;68371;42.630;23.192;2023-05-14T12:02:07;92733.47;;;10.80;100.00
64602;BME280;68371;42.630;23.192;2023-05-14T12:04:35;92729.34;;;10.79;100.00
64602;BME280;68371;42.630;23.192;2023-05-14T12:07:08;92735.47;;;10.83;100.00
64602;BME280;68371;42.630;23.192;2023-05-14T12:09:37;92715.84;;;10.80;100.00
64602;BME280;68371;42.630;23.192;2023-05-14T12:12:08;92712.34;;;10.89;100.00
64602;BME280;68371;42.630;23.192;2023-05-14T12:14:36;92698.69;;;10.95;100.00
64602;BME280;68371;42.630;23.192;2023-05-14T12:17:10;92703.59;;;10.97;100.00
64602;BME280;68371;42.630;23.192;2023-05-14T12:19:39;92697.25;;;10.98;100.00
64602;BME280;68371;42.630;23.192;2023-05-14T12:22:08;92691.09;;;11.06;100.00
64602;BME280;68371;42.630;23.192;2023-05-14T12:24:35;92684.09;;;10.98;100.00
64602;BME280;68371;42.630;23.192;2023-05-14T12:27:04;92689.66;;;11.09;100.00
64602;BME280;68371;42.630;23.192;2023-05-14T12:29:36;92688.59;;;10.97;100.00
64602;BME280;68371;42.630;23.192;2023-05-14T12:32:07;92693.28;;;11.04;100.00
64602;BME280;68371;42.630;23.192;2023-05-14T12:34:36;92696.16;;;10.99;100.00
64602;BME280;68371;42.630;23.192;2023-05-14T12:37:04;92687.91;;;11.00;100.00
64602;BME280;68371;42.630;23.192;2023-05-14T12:39:33;92692.53;;;11.03;100.00
64602;BME280;68371;42.630;23.192;2023-05-14T12:42:00;92672.25;;;11.04;100.00
64602;BME280;68371;42.630;23.192;2023-05-14T12:44:27;92684.53;;;11.00;100.00
64602;BME280;68371;42.630;23.192;2023-05-14T12:46:53;92655.31;;;10.89;100.00
64602;BME280;68371;42.630;23.192;2023-05-14T12:49:20;92676.66;;;11.00;100.00